DAL1428 KJFK-KMIA
Flight info
| Callsign | DAL1428 |
|---|---|
| Flight time | 2h 14m |
| Altitude | 34000 |
| Route | WAVEY EMJAY Q167 KALDA Q101 SKARP Y313 HOAGG BNFSH3 |
| Aircraft | B752/M-SDE2E3FGHIJ3J4J7RWXY/LB1 |
Departure
| Time | 2026-05-05 16:01 |
|---|---|
| Airport | John F. Kennedy International Airport (KJFK) |
Arrival
| Time | 2026-05-05 18:16 |
|---|---|
| Airport | Miami International Airport (KMIA) |
| Time | Latitude | Longitude | Altitude | Speed | Heading |
|---|---|---|---|---|---|
| 2026-05-05 15:27 | 40.64101 | -73.78320 | 18 ft | 0 kts | 60° |
| 2026-05-05 15:47 | 40.64100 | -73.78322 | 18 ft | 1 kts | 60° |
| 2026-05-05 15:47 | 40.64090 | -73.78346 | 18 ft | 2 kts | 60° |
| 2026-05-05 15:47 | 40.64082 | -73.78363 | 18 ft | 2 kts | 60° |
| 2026-05-05 15:48 | 40.64075 | -73.78379 | 18 ft | 2 kts | 60° |
| 2026-05-05 15:48 | 40.64068 | -73.78397 | 18 ft | 2 kts | 60° |
| 2026-05-05 15:48 | 40.64066 | -73.78415 | 18 ft | 2 kts | 107° |
| 2026-05-05 15:48 | 40.64074 | -73.78430 | 18 ft | 1 kts | 143° |
| 2026-05-05 15:49 | 40.64079 | -73.78433 | 18 ft | 1 kts | 153° |
| 2026-05-05 15:49 | 40.64081 | -73.78435 | 18 ft | 0 kts | 151° |
| 2026-05-05 15:51 | 40.64079 | -73.78434 | 18 ft | 1 kts | 151° |
| 2026-05-05 15:52 | 40.64060 | -73.78420 | 18 ft | 4 kts | 151° |
| 2026-05-05 15:52 | 40.64028 | -73.78398 | 18 ft | 5 kts | 151° |
| 2026-05-05 15:52 | 40.63995 | -73.78374 | 18 ft | 6 kts | 152° |
| 2026-05-05 15:52 | 40.63956 | -73.78347 | 18 ft | 6 kts | 152° |
| 2026-05-05 15:53 | 40.63916 | -73.78319 | 18 ft | 6 kts | 152° |
| 2026-05-05 15:53 | 40.63873 | -73.78296 | 18 ft | 6 kts | 167° |
| 2026-05-05 15:53 | 40.63830 | -73.78288 | 18 ft | 6 kts | 173° |
| 2026-05-05 15:53 | 40.63768 | -73.78279 | 18 ft | 12 kts | 174° |
| 2026-05-05 15:54 | 40.63658 | -73.78262 | 17 ft | 17 kts | 173° |
| 2026-05-05 15:54 | 40.63545 | -73.78274 | 15 ft | 14 kts | 204° |
| 2026-05-05 15:54 | 40.63478 | -73.78326 | 14 ft | 10 kts | 194° |
| 2026-05-05 15:54 | 40.63427 | -73.78288 | 14 ft | 8 kts | 120° |
| 2026-05-05 15:55 | 40.63400 | -73.78226 | 14 ft | 7 kts | 120° |
| 2026-05-05 15:55 | 40.63364 | -73.78145 | 14 ft | 14 kts | 120° |
| 2026-05-05 15:55 | 40.63329 | -73.77988 | 14 ft | 22 kts | 89° |
| 2026-05-05 15:55 | 40.63400 | -73.77801 | 14 ft | 25 kts | 41° |
| 2026-05-05 15:56 | 40.63537 | -73.77683 | 18 ft | 22 kts | 31° |
| 2026-05-05 15:56 | 40.63666 | -73.77581 | 18 ft | 21 kts | 30° |
| 2026-05-05 15:56 | 40.63790 | -73.77484 | 18 ft | 20 kts | 31° |
| 2026-05-05 15:56 | 40.63908 | -73.77390 | 18 ft | 20 kts | 30° |
| 2026-05-05 15:57 | 40.64022 | -73.77303 | 18 ft | 19 kts | 30° |
| 2026-05-05 15:57 | 40.64133 | -73.77216 | 18 ft | 18 kts | 31° |
| 2026-05-05 15:57 | 40.64236 | -73.77137 | 18 ft | 17 kts | 30° |
| 2026-05-05 15:57 | 40.64355 | -73.77045 | 18 ft | 25 kts | 31° |
| 2026-05-05 15:58 | 40.64508 | -73.76984 | 18 ft | 24 kts | 14° |
| 2026-05-05 15:58 | 40.64652 | -73.76878 | 18 ft | 22 kts | 30° |
| 2026-05-05 15:58 | 40.64777 | -73.76781 | 18 ft | 21 kts | 31° |
| 2026-05-05 15:58 | 40.64898 | -73.76680 | 18 ft | 20 kts | 33° |
| 2026-05-05 15:59 | 40.65016 | -73.76588 | 18 ft | 19 kts | 30° |
| 2026-05-05 15:59 | 40.65080 | -73.76539 | 18 ft | 6 kts | 30° |
| 2026-05-05 15:59 | 40.65104 | -73.76508 | 18 ft | 4 kts | 71° |
| 2026-05-05 15:59 | 40.65100 | -73.76467 | 18 ft | 5 kts | 112° |
| 2026-05-05 16:00 | 40.65071 | -73.76407 | 18 ft | 12 kts | 123° |
| 2026-05-05 16:00 | 40.65019 | -73.76356 | 18 ft | 9 kts | 192° |
| 2026-05-05 16:00 | 40.64953 | -73.76408 | 18 ft | 20 kts | 212° |
| 2026-05-05 16:00 | 40.64673 | -73.76627 | 18 ft | 76 kts | 211° |
| 2026-05-05 16:01 | 40.64049 | -73.77116 | 18 ft | 130 kts | 211° |
| 2026-05-05 16:01 | 40.63148 | -73.77811 | 136 ft | 165 kts | 209° |
| 2026-05-05 16:01 | 40.62113 | -73.78587 | 550 ft | 181 kts | 210° |
| 2026-05-05 16:01 | 40.61028 | -73.79243 | 1443 ft | 171 kts | 195° |
| 2026-05-05 16:02 | 40.59847 | -73.79127 | 1847 ft | 186 kts | 161° |
| 2026-05-05 16:02 | 40.58859 | -73.77913 | 2071 ft | 214 kts | 125° |
| 2026-05-05 16:02 | 40.58155 | -73.76071 | 2423 ft | 232 kts | 121° |
| 2026-05-05 16:02 | 40.57453 | -73.74196 | 3053 ft | 234 kts | 121° |
| 2026-05-05 16:03 | 40.56736 | -73.72284 | 3646 ft | 237 kts | 122° |
| 2026-05-05 16:03 | 40.55992 | -73.70331 | 4264 ft | 240 kts | 124° |
| 2026-05-05 16:03 | 40.55025 | -73.68483 | 4672 ft | 251 kts | 137° |
| 2026-05-05 16:03 | 40.53782 | -73.66839 | 5251 ft | 256 kts | 144° |
| 2026-05-05 16:04 | 40.52462 | -73.65341 | 5990 ft | 256 kts | 148° |
| 2026-05-05 16:04 | 40.51043 | -73.63886 | 6686 ft | 259 kts | 150° |
| 2026-05-05 16:04 | 40.49608 | -73.62505 | 7403 ft | 260 kts | 151° |
| 2026-05-05 16:04 | 40.48263 | -73.61259 | 7973 ft | 265 kts | 152° |
| 2026-05-05 16:05 | 40.46673 | -73.59816 | 8735 ft | 267 kts | 153° |
| 2026-05-05 16:05 | 40.45108 | -73.58423 | 9190 ft | 281 kts | 153° |
| 2026-05-05 16:05 | 40.43428 | -73.56939 | 9715 ft | 293 kts | 153° |
| 2026-05-05 16:05 | 40.41743 | -73.55450 | 10360 ft | 300 kts | 153° |
| 2026-05-05 16:06 | 40.39930 | -73.53863 | 10645 ft | 321 kts | 153° |
| 2026-05-05 16:06 | 40.38023 | -73.52193 | 10958 ft | 340 kts | 152° |
| 2026-05-05 16:06 | 40.36057 | -73.50466 | 11644 ft | 346 kts | 152° |
| 2026-05-05 16:06 | 40.34028 | -73.48687 | 12341 ft | 352 kts | 152° |
| 2026-05-05 16:07 | 40.31974 | -73.46889 | 13013 ft | 357 kts | 152° |
| 2026-05-05 16:07 | 40.29903 | -73.45078 | 13646 ft | 363 kts | 151° |
| 2026-05-05 16:07 | 40.27787 | -73.43229 | 14348 ft | 365 kts | 151° |
| 2026-05-05 16:07 | 40.25665 | -73.41379 | 14928 ft | 371 kts | 151° |
| 2026-05-05 16:08 | 40.23508 | -73.39494 | 15612 ft | 372 kts | 150° |
| 2026-05-05 16:08 | 40.21392 | -73.37527 | 16192 ft | 378 kts | 148° |
| 2026-05-05 16:08 | 40.19260 | -73.35519 | 16770 ft | 381 kts | 148° |
| 2026-05-05 16:08 | 40.17100 | -73.33491 | 17439 ft | 382 kts | 149° |
| 2026-05-05 16:09 | 40.14903 | -73.31527 | 17948 ft | 383 kts | 155° |
| 2026-05-05 16:09 | 40.12454 | -73.30232 | 18485 ft | 378 kts | 172° |
| 2026-05-05 16:09 | 40.09844 | -73.29865 | 19027 ft | 372 kts | 187° |
| 2026-05-05 16:09 | 40.07330 | -73.30435 | 19519 ft | 368 kts | 203° |
| 2026-05-05 16:10 | 40.05042 | -73.31889 | 20019 ft | 364 kts | 217° |
| 2026-05-05 16:10 | 40.02978 | -73.33826 | 20558 ft | 365 kts | 220° |
| 2026-05-05 16:10 | 40.00968 | -73.35843 | 21015 ft | 368 kts | 221° |
| 2026-05-05 16:10 | 39.98948 | -73.37962 | 21537 ft | 370 kts | 222° |
| 2026-05-05 16:11 | 39.96978 | -73.40083 | 22010 ft | 373 kts | 223° |
| 2026-05-05 16:11 | 39.90965 | -73.46699 | 23383 ft | 381 kts | 223° |
| 2026-05-05 16:12 | 39.88929 | -73.48956 | 23873 ft | 382 kts | 223° |
| 2026-05-05 16:12 | 39.84855 | -73.53481 | 24765 ft | 387 kts | 223° |
| 2026-05-05 16:13 | 39.78661 | -73.60375 | 25987 ft | 395 kts | 223° |
| 2026-05-05 16:13 | 39.76562 | -73.62708 | 26410 ft | 397 kts | 223° |
| 2026-05-05 16:13 | 39.74462 | -73.65041 | 26754 ft | 400 kts | 223° |
| 2026-05-05 16:14 | 39.70216 | -73.69752 | 27536 ft | 405 kts | 223° |
| 2026-05-05 16:14 | 39.65896 | -73.74537 | 28331 ft | 408 kts | 223° |
| 2026-05-05 16:15 | 39.61511 | -73.79386 | 29038 ft | 413 kts | 223° |
| 2026-05-05 16:15 | 39.57121 | -73.84233 | 29685 ft | 418 kts | 223° |
| 2026-05-05 16:16 | 39.52677 | -73.89130 | 30361 ft | 422 kts | 223° |
| 2026-05-05 16:16 | 39.48162 | -73.94097 | 30890 ft | 427 kts | 223° |
| 2026-05-05 16:17 | 39.43599 | -73.99108 | 31429 ft | 431 kts | 223° |
| 2026-05-05 16:17 | 39.41332 | -74.01594 | 31824 ft | 429 kts | 223° |
| 2026-05-05 16:18 | 39.36762 | -74.06592 | 32452 ft | 430 kts | 223° |
| 2026-05-05 16:18 | 39.34471 | -74.09095 | 32740 ft | 430 kts | 223° |
| 2026-05-05 16:18 | 39.29910 | -74.14071 | 33376 ft | 429 kts | 223° |
| 2026-05-05 16:19 | 39.27640 | -74.16544 | 33635 ft | 430 kts | 223° |
| 2026-05-05 16:19 | 39.25351 | -74.19036 | 33926 ft | 429 kts | 223° |
| 2026-05-05 16:19 | 39.20815 | -74.23968 | 33992 ft | 427 kts | 223° |
| 2026-05-05 16:20 | 39.11561 | -74.34006 | 33996 ft | 443 kts | 223° |
| 2026-05-05 16:22 | 38.99447 | -74.47086 | 33978 ft | 463 kts | 223° |
| 2026-05-05 16:23 | 38.89614 | -74.58086 | 33991 ft | 474 kts | 225° |
| 2026-05-05 16:23 | 38.82327 | -74.66618 | 33987 ft | 473 kts | 225° |
| 2026-05-05 16:24 | 38.77441 | -74.72323 | 33996 ft | 474 kts | 225° |
| 2026-05-05 16:25 | 38.69907 | -74.80488 | 33998 ft | 474 kts | 222° |
| 2026-05-05 16:25 | 38.62199 | -74.88504 | 34002 ft | 475 kts | 222° |
| 2026-05-05 16:26 | 38.51945 | -74.99200 | 33997 ft | 474 kts | 224° |
| 2026-05-05 16:27 | 38.46993 | -75.04741 | 34003 ft | 475 kts | 223° |
| 2026-05-05 16:27 | 38.41682 | -75.09863 | 34009 ft | 477 kts | 220° |
| 2026-05-05 16:28 | 38.36388 | -75.14886 | 34013 ft | 477 kts | 220° |
| 2026-05-05 16:28 | 38.31025 | -75.19970 | 34014 ft | 477 kts | 220° |
| 2026-05-05 16:29 | 38.25688 | -75.25021 | 34019 ft | 478 kts | 220° |
| 2026-05-05 16:29 | 38.20365 | -75.30051 | 34018 ft | 477 kts | 220° |
| 2026-05-05 16:30 | 38.15020 | -75.35093 | 34024 ft | 477 kts | 220° |
| 2026-05-05 16:30 | 38.09690 | -75.40112 | 34020 ft | 478 kts | 220° |
| 2026-05-05 16:31 | 38.04304 | -75.45128 | 34019 ft | 480 kts | 219° |
| 2026-05-05 16:31 | 37.98780 | -75.49940 | 34022 ft | 481 kts | 218° |
| 2026-05-05 16:32 | 37.93283 | -75.54727 | 34026 ft | 480 kts | 218° |
| 2026-05-05 16:32 | 37.87594 | -75.59223 | 34025 ft | 487 kts | 208° |
| 2026-05-05 16:33 | 37.81015 | -75.61639 | 34012 ft | 496 kts | 191° |
| 2026-05-05 16:33 | 37.74079 | -75.61565 | 34028 ft | 502 kts | 179° |
| 2026-05-05 16:34 | 37.67124 | -75.61493 | 34033 ft | 495 kts | 192° |
| 2026-05-05 16:34 | 37.60296 | -75.62873 | 34023 ft | 495 kts | 193° |
| 2026-05-05 16:35 | 37.53505 | -75.64302 | 34030 ft | 493 kts | 193° |
| 2026-05-05 16:35 | 37.46744 | -75.65747 | 34036 ft | 493 kts | 193° |
| 2026-05-05 16:36 | 37.39954 | -75.67203 | 34033 ft | 494 kts | 193° |
| 2026-05-05 16:36 | 37.33196 | -75.68654 | 34037 ft | 493 kts | 193° |
| 2026-05-05 16:37 | 37.26426 | -75.70106 | 34048 ft | 493 kts | 193° |
| 2026-05-05 16:37 | 37.19624 | -75.71561 | 34049 ft | 493 kts | 193° |
| 2026-05-05 16:38 | 37.12839 | -75.73012 | 34054 ft | 492 kts | 193° |
| 2026-05-05 16:38 | 37.06201 | -75.74837 | 34063 ft | 487 kts | 204° |
| 2026-05-05 16:39 | 37.00137 | -75.78545 | 34061 ft | 482 kts | 212° |
| 2026-05-05 16:39 | 36.94259 | -75.82548 | 34067 ft | 482 kts | 212° |
| 2026-05-05 16:40 | 36.88391 | -75.86582 | 34069 ft | 482 kts | 213° |
| 2026-05-05 16:40 | 36.82521 | -75.90629 | 34071 ft | 482 kts | 213° |
| 2026-05-05 16:41 | 36.76622 | -75.94698 | 34066 ft | 484 kts | 213° |
| 2026-05-05 16:41 | 36.70726 | -75.98758 | 34060 ft | 483 kts | 213° |
| 2026-05-05 16:42 | 36.64850 | -76.02800 | 34062 ft | 483 kts | 213° |
| 2026-05-05 16:42 | 36.58983 | -76.06827 | 34067 ft | 483 kts | 213° |
| 2026-05-05 16:43 | 36.53052 | -76.10893 | 34072 ft | 484 kts | 213° |
| 2026-05-05 16:43 | 36.47162 | -76.14925 | 34081 ft | 485 kts | 213° |
| 2026-05-05 16:44 | 36.41223 | -76.18981 | 34087 ft | 486 kts | 213° |
| 2026-05-05 16:44 | 36.35291 | -76.23025 | 34083 ft | 487 kts | 213° |
| 2026-05-05 16:45 | 36.29347 | -76.27072 | 34081 ft | 488 kts | 213° |
| 2026-05-05 16:45 | 36.23349 | -76.31149 | 34080 ft | 488 kts | 213° |
| 2026-05-05 16:46 | 36.17405 | -76.35179 | 34087 ft | 488 kts | 214° |
| 2026-05-05 16:46 | 36.11442 | -76.39217 | 34090 ft | 488 kts | 214° |
| 2026-05-05 16:47 | 36.05467 | -76.43256 | 34097 ft | 488 kts | 214° |
| 2026-05-05 16:47 | 35.99514 | -76.47273 | 34098 ft | 489 kts | 214° |
| 2026-05-05 16:48 | 35.93533 | -76.51302 | 34097 ft | 490 kts | 214° |
| 2026-05-05 16:48 | 35.87492 | -76.55270 | 34081 ft | 491 kts | 212° |
| 2026-05-05 16:49 | 35.81389 | -76.59027 | 34071 ft | 491 kts | 212° |
| 2026-05-05 16:49 | 35.75253 | -76.62810 | 34075 ft | 493 kts | 212° |
| 2026-05-05 16:50 | 35.69067 | -76.66618 | 34096 ft | 495 kts | 211° |
| 2026-05-05 16:50 | 35.62920 | -76.70396 | 34088 ft | 495 kts | 211° |
| 2026-05-05 16:51 | 35.56746 | -76.74183 | 34094 ft | 495 kts | 211° |
| 2026-05-05 16:51 | 35.50557 | -76.77973 | 34096 ft | 496 kts | 211° |
| 2026-05-05 16:52 | 35.44367 | -76.81757 | 34098 ft | 496 kts | 212° |
| 2026-05-05 16:52 | 35.38174 | -76.85538 | 34101 ft | 499 kts | 211° |
| 2026-05-05 16:53 | 35.31949 | -76.89331 | 34104 ft | 497 kts | 212° |
| 2026-05-05 16:53 | 35.25735 | -76.93111 | 34117 ft | 499 kts | 212° |
| 2026-05-05 16:54 | 35.19528 | -76.96973 | 34125 ft | 501 kts | 212° |
| 2026-05-05 16:54 | 35.13269 | -77.00896 | 34136 ft | 501 kts | 212° |
| 2026-05-05 16:55 | 35.07081 | -77.04767 | 34115 ft | 498 kts | 213° |
| 2026-05-05 16:55 | 35.00905 | -77.08627 | 34128 ft | 501 kts | 213° |
| 2026-05-05 16:56 | 34.94647 | -77.12527 | 34128 ft | 500 kts | 213° |
| 2026-05-05 16:56 | 34.88484 | -77.16363 | 34111 ft | 501 kts | 213° |
| 2026-05-05 16:57 | 34.82221 | -77.20256 | 34120 ft | 503 kts | 213° |
| 2026-05-05 16:57 | 34.75988 | -77.24122 | 34114 ft | 501 kts | 213° |
| 2026-05-05 16:58 | 34.69765 | -77.27975 | 34110 ft | 502 kts | 213° |
| 2026-05-05 16:58 | 34.63614 | -77.31780 | 34119 ft | 504 kts | 213° |
| 2026-05-05 16:59 | 34.57414 | -77.35606 | 34117 ft | 507 kts | 213° |
| 2026-05-05 16:59 | 34.51163 | -77.39409 | 34098 ft | 508 kts | 210° |
| 2026-05-05 17:00 | 34.44293 | -77.41775 | 34113 ft | 523 kts | 195° |
| 2026-05-05 17:00 | 34.37094 | -77.43250 | 34110 ft | 522 kts | 195° |
| 2026-05-05 17:01 | 34.29901 | -77.44685 | 34108 ft | 524 kts | 195° |
| 2026-05-05 17:01 | 34.22659 | -77.46109 | 34100 ft | 524 kts | 195° |
| 2026-05-05 17:02 | 34.15496 | -77.47509 | 34119 ft | 526 kts | 195° |
| 2026-05-05 17:02 | 34.08232 | -77.48923 | 34121 ft | 526 kts | 195° |
| 2026-05-05 17:03 | 34.00970 | -77.50335 | 34125 ft | 528 kts | 195° |
| 2026-05-05 17:03 | 33.93687 | -77.51746 | 34124 ft | 527 kts | 195° |
| 2026-05-05 17:04 | 33.86440 | -77.53149 | 34106 ft | 527 kts | 195° |
| 2026-05-05 17:04 | 33.79162 | -77.54555 | 34117 ft | 527 kts | 195° |
| 2026-05-05 17:05 | 33.71920 | -77.55952 | 34116 ft | 530 kts | 195° |
| 2026-05-05 17:05 | 33.64625 | -77.57355 | 34112 ft | 527 kts | 195° |
| 2026-05-05 17:06 | 33.57415 | -77.58841 | 34116 ft | 525 kts | 200° |
| 2026-05-05 17:06 | 33.50405 | -77.61277 | 34108 ft | 520 kts | 204° |
| 2026-05-05 17:07 | 33.43441 | -77.63727 | 34120 ft | 523 kts | 204° |
| 2026-05-05 17:07 | 33.36428 | -77.66183 | 34138 ft | 523 kts | 203° |
| 2026-05-05 17:08 | 33.29390 | -77.68639 | 34128 ft | 523 kts | 203° |
| 2026-05-05 17:08 | 33.22404 | -77.71072 | 34119 ft | 523 kts | 203° |
| 2026-05-05 17:09 | 33.15367 | -77.73518 | 34130 ft | 525 kts | 203° |
| 2026-05-05 17:09 | 33.08341 | -77.75957 | 34141 ft | 523 kts | 203° |
| 2026-05-05 17:10 | 33.01282 | -77.78404 | 34123 ft | 524 kts | 203° |
| 2026-05-05 17:10 | 32.94227 | -77.80845 | 34145 ft | 527 kts | 204° |
| 2026-05-05 17:11 | 32.87192 | -77.83273 | 34119 ft | 524 kts | 203° |
| 2026-05-05 17:11 | 32.80117 | -77.85713 | 34125 ft | 525 kts | 204° |
| 2026-05-05 17:12 | 32.73220 | -77.88088 | 34130 ft | 528 kts | 204° |
| 2026-05-05 17:12 | 32.66119 | -77.90515 | 34123 ft | 529 kts | 203° |
| 2026-05-05 17:13 | 32.59042 | -77.92810 | 34133 ft | 527 kts | 203° |
| 2026-05-05 17:13 | 32.51929 | -77.95118 | 34123 ft | 528 kts | 203° |
| 2026-05-05 17:14 | 32.44807 | -77.97424 | 34120 ft | 528 kts | 203° |
| 2026-05-05 17:14 | 32.37651 | -77.99738 | 34136 ft | 531 kts | 203° |
| 2026-05-05 17:15 | 32.30536 | -78.02032 | 34125 ft | 529 kts | 203° |
| 2026-05-05 17:15 | 32.23389 | -78.04334 | 34136 ft | 529 kts | 203° |
| 2026-05-05 17:16 | 32.16300 | -78.06614 | 34130 ft | 526 kts | 204° |
| 2026-05-05 17:16 | 32.09215 | -78.08892 | 34129 ft | 529 kts | 203° |
| 2026-05-05 17:17 | 32.02064 | -78.11184 | 34124 ft | 529 kts | 204° |
| 2026-05-05 17:17 | 31.94906 | -78.13477 | 34128 ft | 532 kts | 204° |
| 2026-05-05 17:18 | 31.87780 | -78.15754 | 34118 ft | 531 kts | 203° |
| 2026-05-05 17:18 | 31.80631 | -78.18033 | 34109 ft | 530 kts | 204° |
| 2026-05-05 17:19 | 31.73488 | -78.20309 | 34111 ft | 529 kts | 204° |
| 2026-05-05 17:19 | 31.66342 | -78.22584 | 34113 ft | 531 kts | 204° |
| 2026-05-05 17:20 | 31.59195 | -78.24851 | 34115 ft | 528 kts | 204° |
| 2026-05-05 17:20 | 31.52084 | -78.27108 | 34116 ft | 529 kts | 204° |
| 2026-05-05 17:21 | 31.44948 | -78.29401 | 34106 ft | 529 kts | 205° |
| 2026-05-05 17:22 | 31.34364 | -78.32950 | 34104 ft | 527 kts | 205° |
| 2026-05-05 17:22 | 31.27245 | -78.35334 | 34117 ft | 529 kts | 205° |
| 2026-05-05 17:23 | 31.20171 | -78.37693 | 34100 ft | 525 kts | 205° |
| 2026-05-05 17:23 | 31.13171 | -78.40027 | 34120 ft | 523 kts | 205° |
| 2026-05-05 17:24 | 31.06125 | -78.42374 | 34116 ft | 523 kts | 205° |
| 2026-05-05 17:24 | 30.99097 | -78.44710 | 34110 ft | 523 kts | 205° |
| 2026-05-05 17:25 | 30.92122 | -78.47020 | 34098 ft | 518 kts | 205° |
| 2026-05-05 17:25 | 30.85158 | -78.49331 | 34079 ft | 519 kts | 205° |
| 2026-05-05 17:26 | 30.78166 | -78.51645 | 34085 ft | 522 kts | 205° |
| 2026-05-05 17:26 | 30.71179 | -78.53954 | 34100 ft | 524 kts | 205° |
| 2026-05-05 17:27 | 30.64109 | -78.56283 | 34096 ft | 521 kts | 205° |
| 2026-05-05 17:27 | 30.57118 | -78.58586 | 34088 ft | 522 kts | 205° |
| 2026-05-05 17:28 | 30.50067 | -78.60905 | 34099 ft | 523 kts | 206° |
| 2026-05-05 17:28 | 30.43051 | -78.63209 | 34096 ft | 523 kts | 206° |
| 2026-05-05 17:29 | 30.36051 | -78.65503 | 34102 ft | 523 kts | 205° |
| 2026-05-05 17:29 | 30.29003 | -78.67812 | 34116 ft | 526 kts | 205° |
| 2026-05-05 17:30 | 30.21951 | -78.70115 | 34097 ft | 522 kts | 205° |
| 2026-05-05 17:30 | 30.14921 | -78.72412 | 34101 ft | 526 kts | 205° |
| 2026-05-05 17:31 | 30.07876 | -78.74704 | 34106 ft | 522 kts | 205° |
| 2026-05-05 17:31 | 30.00870 | -78.76985 | 34104 ft | 525 kts | 205° |
| 2026-05-05 17:32 | 29.93771 | -78.79292 | 34116 ft | 528 kts | 206° |
| 2026-05-05 17:32 | 29.86727 | -78.81576 | 34085 ft | 524 kts | 205° |
| 2026-05-05 17:33 | 29.79651 | -78.83834 | 34082 ft | 528 kts | 202° |
| 2026-05-05 17:33 | 29.72238 | -78.85071 | 34078 ft | 540 kts | 195° |
| 2026-05-05 17:34 | 29.64751 | -78.86105 | 34083 ft | 538 kts | 196° |
| 2026-05-05 17:34 | 29.57323 | -78.87113 | 34081 ft | 536 kts | 195° |
| 2026-05-05 17:35 | 29.49850 | -78.88122 | 34081 ft | 535 kts | 195° |
| 2026-05-05 17:35 | 29.42417 | -78.89122 | 34070 ft | 536 kts | 195° |
| 2026-05-05 17:36 | 29.34990 | -78.90119 | 34084 ft | 538 kts | 195° |
| 2026-05-05 17:36 | 29.27513 | -78.91120 | 34084 ft | 536 kts | 195° |
| 2026-05-05 17:37 | 29.20119 | -78.92110 | 34090 ft | 534 kts | 196° |
| 2026-05-05 17:37 | 29.12688 | -78.93104 | 34074 ft | 536 kts | 195° |
| 2026-05-05 17:38 | 29.05255 | -78.94095 | 34081 ft | 536 kts | 196° |
| 2026-05-05 17:38 | 28.97859 | -78.95081 | 34086 ft | 537 kts | 196° |
| 2026-05-05 17:39 | 28.90398 | -78.96072 | 34079 ft | 536 kts | 195° |
| 2026-05-05 17:39 | 28.82980 | -78.97058 | 34059 ft | 537 kts | 195° |
| 2026-05-05 17:40 | 28.75537 | -78.98045 | 34060 ft | 536 kts | 196° |
| 2026-05-05 17:40 | 28.68055 | -78.99036 | 34062 ft | 535 kts | 195° |
| 2026-05-05 17:41 | 28.60652 | -79.00016 | 34064 ft | 535 kts | 195° |
| 2026-05-05 17:41 | 28.53258 | -79.00992 | 34061 ft | 534 kts | 195° |
| 2026-05-05 17:42 | 28.45847 | -79.01971 | 34065 ft | 535 kts | 195° |
| 2026-05-05 17:42 | 28.38410 | -79.02952 | 34061 ft | 536 kts | 195° |
| 2026-05-05 17:43 | 28.31240 | -79.04652 | 34072 ft | 516 kts | 208° |
| 2026-05-05 17:43 | 28.24399 | -79.07192 | 34059 ft | 516 kts | 207° |
| 2026-05-05 17:44 | 28.17525 | -79.09746 | 34056 ft | 519 kts | 207° |
| 2026-05-05 17:44 | 28.10638 | -79.12305 | 34060 ft | 518 kts | 207° |
| 2026-05-05 17:45 | 28.03801 | -79.14847 | 34058 ft | 515 kts | 208° |
| 2026-05-05 17:45 | 27.96996 | -79.17374 | 34050 ft | 517 kts | 207° |
| 2026-05-05 17:46 | 27.90152 | -79.19912 | 34054 ft | 516 kts | 207° |
| 2026-05-05 17:46 | 27.83307 | -79.22449 | 34038 ft | 517 kts | 207° |
| 2026-05-05 17:47 | 27.76460 | -79.24980 | 34033 ft | 516 kts | 207° |
| 2026-05-05 17:47 | 27.69582 | -79.27522 | 34032 ft | 516 kts | 207° |
| 2026-05-05 17:48 | 27.62767 | -79.30037 | 34037 ft | 516 kts | 207° |
| 2026-05-05 17:48 | 27.55899 | -79.32568 | 34034 ft | 517 kts | 207° |
| 2026-05-05 17:49 | 27.49047 | -79.35087 | 34032 ft | 512 kts | 207° |
| 2026-05-05 17:49 | 27.45596 | -79.36362 | 33454 ft | 525 kts | 207° |
| 2026-05-05 17:49 | 27.42125 | -79.37633 | 33320 ft | 514 kts | 207° |
| 2026-05-05 17:49 | 27.38756 | -79.38862 | 33292 ft | 499 kts | 207° |
| 2026-05-05 17:50 | 27.35519 | -79.40047 | 33267 ft | 483 kts | 207° |
| 2026-05-05 17:50 | 27.32328 | -79.41215 | 33112 ft | 472 kts | 207° |
| 2026-05-05 17:50 | 27.29254 | -79.42345 | 32677 ft | 467 kts | 207° |
| 2026-05-05 17:50 | 27.26107 | -79.43505 | 31986 ft | 468 kts | 207° |
| 2026-05-05 17:51 | 27.23027 | -79.44634 | 31471 ft | 465 kts | 207° |
| 2026-05-05 17:51 | 27.19968 | -79.45755 | 30858 ft | 464 kts | 206° |
| 2026-05-05 17:51 | 27.16882 | -79.46882 | 30460 ft | 457 kts | 206° |
| 2026-05-05 17:51 | 27.13901 | -79.47970 | 30051 ft | 451 kts | 206° |
| 2026-05-05 17:52 | 27.10902 | -79.49065 | 29543 ft | 447 kts | 206° |
| 2026-05-05 17:52 | 27.07959 | -79.50138 | 29145 ft | 439 kts | 206° |
| 2026-05-05 17:52 | 27.05079 | -79.51189 | 28271 ft | 438 kts | 206° |
| 2026-05-05 17:52 | 27.02168 | -79.52251 | 27686 ft | 429 kts | 206° |
| 2026-05-05 17:53 | 26.99343 | -79.53280 | 26866 ft | 427 kts | 206° |
| 2026-05-05 17:53 | 26.96536 | -79.54302 | 26216 ft | 420 kts | 206° |
| 2026-05-05 17:53 | 26.93784 | -79.55304 | 25502 ft | 416 kts | 206° |
| 2026-05-05 17:53 | 26.91033 | -79.56306 | 24828 ft | 410 kts | 206° |
| 2026-05-05 17:54 | 26.88332 | -79.57286 | 24065 ft | 407 kts | 206° |
| 2026-05-05 17:54 | 26.85659 | -79.58251 | 23393 ft | 402 kts | 206° |
| 2026-05-05 17:54 | 26.83021 | -79.59202 | 22799 ft | 393 kts | 206° |
| 2026-05-05 17:54 | 26.80434 | -79.60135 | 22261 ft | 387 kts | 206° |
| 2026-05-05 17:55 | 26.77869 | -79.61063 | 21765 ft | 386 kts | 206° |
| 2026-05-05 17:55 | 26.75278 | -79.62000 | 21276 ft | 388 kts | 205° |
| 2026-05-05 17:55 | 26.72702 | -79.62928 | 20793 ft | 387 kts | 205° |
| 2026-05-05 17:55 | 26.70165 | -79.63841 | 20324 ft | 383 kts | 205° |
| 2026-05-05 17:56 | 26.67625 | -79.64754 | 19860 ft | 379 kts | 204° |
| 2026-05-05 17:56 | 26.65117 | -79.65656 | 19417 ft | 376 kts | 204° |
| 2026-05-05 17:56 | 26.62614 | -79.66555 | 18980 ft | 375 kts | 204° |
| 2026-05-05 17:56 | 26.60132 | -79.67428 | 18550 ft | 373 kts | 203° |
| 2026-05-05 17:57 | 26.57650 | -79.68297 | 18124 ft | 371 kts | 202° |
| 2026-05-05 17:57 | 26.55168 | -79.69167 | 17678 ft | 369 kts | 202° |
| 2026-05-05 17:57 | 26.52748 | -79.70013 | 17232 ft | 367 kts | 202° |
| 2026-05-05 17:57 | 26.50304 | -79.70869 | 16780 ft | 363 kts | 202° |
| 2026-05-05 17:58 | 26.47899 | -79.71724 | 16325 ft | 357 kts | 206° |
| 2026-05-05 17:58 | 26.45753 | -79.72993 | 16015 ft | 340 kts | 223° |
| 2026-05-05 17:58 | 26.44055 | -79.74776 | 15997 ft | 333 kts | 231° |
| 2026-05-05 17:58 | 26.42433 | -79.76664 | 15982 ft | 342 kts | 231° |
| 2026-05-05 17:59 | 26.40796 | -79.78593 | 15978 ft | 342 kts | 231° |
| 2026-05-05 17:59 | 26.39164 | -79.80542 | 15978 ft | 340 kts | 232° |
| 2026-05-05 17:59 | 26.37662 | -79.82595 | 15961 ft | 337 kts | 240° |
| 2026-05-05 17:59 | 26.36340 | -79.84742 | 15986 ft | 337 kts | 239° |
| 2026-05-05 18:00 | 26.34993 | -79.86897 | 15993 ft | 338 kts | 239° |
| 2026-05-05 18:00 | 26.33666 | -79.89014 | 15980 ft | 322 kts | 239° |
| 2026-05-05 18:00 | 26.32414 | -79.91011 | 15974 ft | 307 kts | 240° |
| 2026-05-05 18:00 | 26.31191 | -79.92969 | 15819 ft | 310 kts | 240° |
| 2026-05-05 18:01 | 26.29950 | -79.94956 | 15626 ft | 312 kts | 239° |
| 2026-05-05 18:01 | 26.28707 | -79.96941 | 15434 ft | 310 kts | 240° |
| 2026-05-05 18:01 | 26.27483 | -79.98891 | 15248 ft | 306 kts | 239° |
| 2026-05-05 18:01 | 26.26175 | -80.00741 | 15074 ft | 310 kts | 227° |
| 2026-05-05 18:02 | 26.24366 | -80.02142 | 14898 ft | 320 kts | 209° |
| 2026-05-05 18:02 | 26.22223 | -80.02898 | 14529 ft | 330 kts | 196° |
| 2026-05-05 18:02 | 26.19965 | -80.03402 | 14113 ft | 325 kts | 196° |
| 2026-05-05 18:02 | 26.17781 | -80.03909 | 13722 ft | 317 kts | 196° |
| 2026-05-05 18:03 | 26.15625 | -80.04403 | 13321 ft | 310 kts | 197° |
| 2026-05-05 18:03 | 26.13533 | -80.04884 | 12926 ft | 304 kts | 196° |
| 2026-05-05 18:03 | 26.11449 | -80.05361 | 12554 ft | 303 kts | 196° |
| 2026-05-05 18:03 | 26.09369 | -80.05839 | 12192 ft | 305 kts | 196° |
| 2026-05-05 18:04 | 26.07302 | -80.06311 | 11837 ft | 304 kts | 196° |
| 2026-05-05 18:04 | 26.05212 | -80.06838 | 11532 ft | 302 kts | 197° |
| 2026-05-05 18:04 | 26.03176 | -80.07371 | 11204 ft | 302 kts | 197° |
| 2026-05-05 18:04 | 26.01102 | -80.07910 | 10854 ft | 300 kts | 197° |
| 2026-05-05 18:05 | 25.99086 | -80.08433 | 10523 ft | 297 kts | 197° |
| 2026-05-05 18:05 | 25.97084 | -80.08953 | 10228 ft | 292 kts | 197° |
| 2026-05-05 18:05 | 25.95119 | -80.09463 | 10015 ft | 285 kts | 197° |
| 2026-05-05 18:05 | 25.93240 | -80.10003 | 9910 ft | 272 kts | 206° |
| 2026-05-05 18:06 | 25.91684 | -80.11167 | 9788 ft | 269 kts | 227° |
| 2026-05-05 18:06 | 25.90805 | -80.12179 | 9481 ft | 279 kts | 229° |
| 2026-05-05 18:06 | 25.89024 | -80.14281 | 8852 ft | 284 kts | 229° |
| 2026-05-05 18:06 | 25.87802 | -80.15984 | 8567 ft | 276 kts | 244° |
| 2026-05-05 18:07 | 25.87299 | -80.18005 | 8146 ft | 274 kts | 271° |
| 2026-05-05 18:07 | 25.87462 | -80.20092 | 7814 ft | 271 kts | 275° |
| 2026-05-05 18:07 | 25.87553 | -80.22181 | 7435 ft | 271 kts | 272° |
| 2026-05-05 18:07 | 25.87574 | -80.24268 | 7009 ft | 270 kts | 271° |
| 2026-05-05 18:08 | 25.87560 | -80.26310 | 6671 ft | 257 kts | 270° |
| 2026-05-05 18:08 | 25.87570 | -80.28288 | 6288 ft | 261 kts | 279° |
| 2026-05-05 18:08 | 25.88170 | -80.30172 | 5984 ft | 258 kts | 298° |
| 2026-05-05 18:08 | 25.89009 | -80.31910 | 5720 ft | 244 kts | 297° |
| 2026-05-05 18:09 | 25.89775 | -80.33530 | 5424 ft | 231 kts | 298° |
| 2026-05-05 18:09 | 25.90522 | -80.35091 | 5133 ft | 224 kts | 298° |
| 2026-05-05 18:09 | 25.91257 | -80.36613 | 4871 ft | 226 kts | 298° |
| 2026-05-05 18:09 | 25.92003 | -80.38156 | 4654 ft | 222 kts | 299° |
| 2026-05-05 18:10 | 25.92727 | -80.39648 | 4330 ft | 216 kts | 299° |
| 2026-05-05 18:10 | 25.93420 | -80.41096 | 4081 ft | 211 kts | 295° |
| 2026-05-05 18:10 | 25.93684 | -80.42684 | 3988 ft | 211 kts | 271° |
| 2026-05-05 18:10 | 25.93669 | -80.44355 | 4016 ft | 220 kts | 270° |
| 2026-05-05 18:11 | 25.93297 | -80.46013 | 3720 ft | 224 kts | 239° |
| 2026-05-05 18:11 | 25.92169 | -80.47124 | 3626 ft | 217 kts | 202° |
| 2026-05-05 18:11 | 25.90670 | -80.47308 | 3529 ft | 222 kts | 168° |
| 2026-05-05 18:11 | 25.89263 | -80.46551 | 3346 ft | 224 kts | 145° |
| 2026-05-05 18:12 | 25.87955 | -80.45615 | 3071 ft | 221 kts | 143° |
| 2026-05-05 18:12 | 25.87021 | -80.44361 | 2777 ft | 206 kts | 117° |
| 2026-05-05 18:12 | 25.86372 | -80.42974 | 2286 ft | 195 kts | 117° |
| 2026-05-05 18:12 | 25.85771 | -80.41762 | 2204 ft | 172 kts | 117° |
| 2026-05-05 18:13 | 25.85188 | -80.40548 | 2077 ft | 181 kts | 117° |
| 2026-05-05 18:13 | 25.84583 | -80.39326 | 1834 ft | 182 kts | 117° |
| 2026-05-05 18:13 | 25.83969 | -80.38109 | 1596 ft | 175 kts | 118° |
| 2026-05-05 18:13 | 25.83383 | -80.36958 | 1352 ft | 168 kts | 118° |
| 2026-05-05 18:14 | 25.82820 | -80.35856 | 1130 ft | 163 kts | 118° |
| 2026-05-05 18:14 | 25.82260 | -80.34761 | 926 ft | 160 kts | 118° |
| 2026-05-05 18:14 | 25.81750 | -80.33768 | 712 ft | 145 kts | 118° |
| 2026-05-05 18:14 | 25.81290 | -80.32871 | 521 ft | 128 kts | 118° |
| 2026-05-05 18:15 | 25.80869 | -80.32049 | 381 ft | 123 kts | 118° |
| 2026-05-05 18:15 | 25.80446 | -80.31225 | 249 ft | 129 kts | 118° |
| 2026-05-05 18:15 | 25.80027 | -80.30409 | 93 ft | 127 kts | 118° |
| 2026-05-05 18:15 | 25.79606 | -80.29597 | 14 ft | 106 kts | 118° |
| 2026-05-05 18:16 | 25.79341 | -80.29079 | 14 ft | 62 kts | 120° |
| 2026-05-05 18:16 | 25.79175 | -80.28752 | 17 ft | 40 kts | 118° |
| 2026-05-05 18:16 | 25.79103 | -80.28539 | 16 ft | 16 kts | 89° |
| 2026-05-05 18:16 | 25.79111 | -80.28424 | 14 ft | 14 kts | 100° |
| 2026-05-05 18:17 | 25.79069 | -80.28332 | 14 ft | 13 kts | 121° |
| 2026-05-05 18:17 | 25.79035 | -80.28265 | 14 ft | 7 kts | 118° |
| 2026-05-05 18:17 | 25.79009 | -80.28213 | 14 ft | 7 kts | 118° |
| 2026-05-05 18:17 | 25.78985 | -80.28162 | 14 ft | 7 kts | 118° |
| 2026-05-05 18:18 | 25.78960 | -80.28113 | 14 ft | 7 kts | 118° |
| 2026-05-05 18:18 | 25.78936 | -80.28062 | 14 ft | 7 kts | 118° |
| 2026-05-05 18:18 | 25.78924 | -80.28023 | 14 ft | 5 kts | 96° |
| 2026-05-05 18:18 | 25.78933 | -80.27982 | 14 ft | 5 kts | 69° |
| 2026-05-05 18:19 | 25.78939 | -80.27950 | 14 ft | 6 kts | 87° |
| 2026-05-05 18:19 | 25.78939 | -80.27904 | 14 ft | 6 kts | 90° |
| 2026-05-05 18:19 | 25.78941 | -80.27854 | 14 ft | 6 kts | 74° |
| 2026-05-05 18:19 | 25.78967 | -80.27827 | 14 ft | 5 kts | 19° |
| 2026-05-05 18:20 | 25.78997 | -80.27815 | 14 ft | 3 kts | 19° |
| 2026-05-05 18:20 | 25.79024 | -80.27806 | 14 ft | 2 kts | 17° |
| 2026-05-05 18:20 | 25.79050 | -80.27797 | 14 ft | 4 kts | 18° |
| 2026-05-05 18:20 | 25.79077 | -80.27788 | 14 ft | 4 kts | 18° |
| 2026-05-05 18:21 | 25.79111 | -80.27776 | 14 ft | 4 kts | 12° |
| 2026-05-05 18:21 | 25.79131 | -80.27772 | 14 ft | 3 kts | 11° |
| 2026-05-05 18:21 | 25.79149 | -80.27765 | 14 ft | 0 kts | 40° |
| 2026-05-05 18:21 | 25.79151 | -80.27762 | 14 ft | 0 kts | 60° |
| 2026-05-05 18:22 | 25.79151 | -80.27757 | 14 ft | 1 kts | 83° |
| 2026-05-05 18:22 | 25.79146 | -80.27738 | 14 ft | 2 kts | 110° |
| 2026-05-05 18:22 | 25.79143 | -80.27728 | 14 ft | 2 kts | 107° |
| 2026-05-05 18:22 | 25.79141 | -80.27716 | 14 ft | 1 kts | 98° |
| 2026-05-05 18:23 | 25.79140 | -80.27708 | 14 ft | 0 kts | 98° |
| 2026-05-05 18:23 | 25.79140 | -80.27706 | 14 ft | 0 kts | 98° |